createdAt,value
2023-01-11T00:00:59.867Z,100587.81
2023-01-11T00:04:02.548Z,100577.53
2023-01-11T00:07:04.929Z,100582.66
2023-01-11T00:10:08.296Z,100586.09
2023-01-11T00:13:10.611Z,100582.69
2023-01-11T00:16:13.367Z,100593.00
2023-01-11T00:19:15.604Z,100592.13
2023-01-11T00:22:20.385Z,100592.13
2023-01-11T00:25:22.984Z,100585.28
2023-01-11T00:28:25.665Z,100585.28
2023-01-11T00:31:28.019Z,100586.13
2023-01-11T00:34:30.610Z,100593.84
2023-01-11T00:37:32.890Z,100589.56
2023-01-11T00:40:36.812Z,100599.84
2023-01-11T00:43:57.689Z,100593.00
2023-01-11T00:47:18.993Z,100588.72
2023-01-11T00:50:21.297Z,100591.28
2023-01-11T00:53:23.815Z,100598.97
2023-01-11T00:56:26.268Z,100599.84
2023-01-11T00:59:29.094Z,100609.28
2023-01-11T01:02:34.521Z,100605.88
2023-01-11T01:05:38.147Z,100607.56
2023-01-11T01:08:40.417Z,100624.69
2023-01-11T01:11:43.147Z,100620.44
2023-01-11T01:14:46.986Z,100625.56
2023-01-11T01:17:52.194Z,100620.41
2023-01-11T01:20:54.611Z,100624.69
2023-01-11T01:23:57.216Z,100628.13
2023-01-11T01:26:59.789Z,100628.13
2023-01-11T01:30:02.449Z,100639.28
2023-01-11T01:33:05.503Z,100639.28
2023-01-11T01:36:08.282Z,100639.28
2023-01-11T01:39:11.304Z,100633.25
2023-01-11T01:42:18.038Z,100632.41
2023-01-11T01:45:38.947Z,100637.56
2023-01-11T01:48:43.598Z,100644.44
2023-01-11T01:51:49.885Z,100640.97
2023-01-11T01:54:52.619Z,100653.00
2023-01-11T01:57:57.137Z,100649.56
2023-01-11T02:01:22.461Z,100653.84
2023-01-11T02:04:31.161Z,100649.56
2023-01-11T02:07:35.342Z,100655.56
2023-01-11T02:10:37.898Z,100653.84
2023-01-11T02:13:46.112Z,100658.13
2023-01-11T02:16:49.009Z,100667.53
2023-01-11T02:19:51.895Z,100667.53
2023-01-11T02:23:12.740Z,100677.84
2023-01-11T02:26:15.351Z,100667.53
2023-01-11T02:29:37.903Z,100671.81
2023-01-11T02:32:43.477Z,100665.84
2023-01-11T02:35:57.644Z,100675.25
2023-01-11T02:39:09.962Z,100668.41
2023-01-11T02:42:36.906Z,100679.53
2023-01-11T02:45:50.538Z,100688.06
2023-01-11T02:49:05.126Z,100677.78
2023-01-11T02:52:30.913Z,100681.22
2023-01-11T02:55:37.151Z,100677.78
2023-01-11T02:58:41.932Z,100676.09
2023-01-11T03:01:46.051Z,100661.53
2023-01-11T03:04:48.988Z,100670.94
2023-01-11T03:08:02.200Z,100669.22
2023-01-11T03:11:10.093Z,100679.50
2023-01-11T03:14:12.365Z,100682.91
2023-01-11T03:17:17.820Z,100688.03
2023-01-11T03:20:22.983Z,100684.63
2023-01-11T03:23:39.105Z,100688.03
2023-01-11T03:26:49.175Z,100698.31
2023-01-11T03:29:54.525Z,100703.41
2023-01-11T03:33:06.923Z,100717.12
2023-01-11T03:36:24.623Z,100717.09
2023-01-11T03:39:29.727Z,100729.09
2023-01-11T03:42:34.084Z,100732.47
2023-01-11T03:45:40.071Z,100723.06
2023-01-11T03:48:49.084Z,100729.94
2023-01-11T03:51:53.671Z,100717.06
2023-01-11T03:54:56.448Z,100713.66
2023-01-11T03:57:59.921Z,100701.66
2023-01-11T04:01:03.279Z,100690.53
2023-01-11T04:04:06.268Z,100679.41
2023-01-11T04:07:08.620Z,100679.41
2023-01-11T04:10:11.482Z,100690.50
2023-01-11T04:13:13.743Z,100691.37
2023-01-11T04:16:16.364Z,100687.94
2023-01-11T04:19:18.912Z,100688.78
2023-01-11T04:22:21.728Z,100702.47
2023-01-11T04:25:24.000Z,100700.75
2023-01-11T04:28:26.534Z,100698.19
2023-01-11T04:31:28.969Z,100699.03
2023-01-11T04:34:31.585Z,100711.00
2023-01-11T04:37:33.911Z,100718.72
2023-01-11T04:40:36.597Z,100696.44
2023-01-11T04:43:39.118Z,100689.62
2023-01-11T04:46:41.746Z,100698.19
2023-01-11T04:49:44.289Z,100718.72
2023-01-11T04:52:46.930Z,100726.44
2023-01-11T04:55:49.486Z,100742.69
2023-01-11T04:58:52.117Z,100764.03
2023-01-11T05:01:54.616Z,100754.59
2023-01-11T05:04:57.253Z,100728.97
2023-01-11T05:07:59.573Z,100724.69
2023-01-11T05:11:03.613Z,100728.94
2023-01-11T05:14:06.039Z,100742.59
2023-01-11T05:17:13.013Z,100746.91
2023-01-11T05:20:15.498Z,100719.50
2023-01-11T05:23:18.200Z,100722.09
2023-01-11T05:26:25.081Z,100739.16
2023-01-11T05:29:28.698Z,100735.72
2023-01-11T05:32:31.216Z,100745.16
2023-01-11T05:35:33.832Z,100751.06
2023-01-11T05:38:36.420Z,100754.50
2023-01-11T05:41:39.247Z,100740.78
2023-01-11T05:45:00.283Z,100729.66
2023-01-11T05:48:03.064Z,100727.16
2023-01-11T05:51:05.573Z,100716.91
2023-01-11T05:54:10.456Z,100725.44
2023-01-11T05:57:12.764Z,100740.84
2023-01-11T06:00:15.584Z,100737.44
2023-01-11T06:03:18.516Z,100729.75
2023-01-11T06:06:21.522Z,100721.97
2023-01-11T06:09:25.059Z,100717.75
2023-01-11T06:12:28.205Z,100718.59
2023-01-11T06:15:30.776Z,100718.56
2023-01-11T06:18:34.573Z,100722.81
2023-01-11T06:21:37.223Z,100728.75
2023-01-11T06:24:39.513Z,100727.91
2023-01-11T06:27:42.199Z,100727.06
2023-01-11T06:30:44.622Z,100732.19
2023-01-11T06:33:47.620Z,100723.66
2023-01-11T06:36:49.980Z,100720.28
2023-01-11T06:39:52.676Z,100716.00
2023-01-11T06:42:55.244Z,100733.13
2023-01-11T06:45:58.941Z,100734.78
2023-01-11T06:49:01.994Z,100720.25
2023-01-11T06:52:04.639Z,100740.81
2023-01-11T06:55:07.194Z,100748.44
2023-01-11T06:58:10.020Z,100751.84
2023-01-11T07:01:12.558Z,100768.94
2023-01-11T07:04:15.867Z,100770.66
2023-01-11T07:07:18.952Z,100769.00
2023-01-11T07:10:21.956Z,100777.56
2023-01-11T07:13:24.353Z,100781.03
2023-01-11T07:16:27.051Z,100785.31
2023-01-11T07:19:29.356Z,100784.50
2023-01-11T07:22:35.783Z,100791.41
2023-01-11T07:25:38.508Z,100804.19
2023-01-11T07:28:41.076Z,100818.78
2023-01-11T07:31:43.465Z,100824.81
2023-01-11T07:34:46.223Z,100822.31
2023-01-11T07:37:48.652Z,100818.88
2023-01-11T07:40:51.471Z,100823.19
2023-01-11T07:43:53.880Z,100813.81
2023-01-11T07:46:56.508Z,100823.28
2023-01-11T07:49:58.973Z,100819.03
2023-01-11T07:53:01.714Z,100819.13
2023-01-11T07:56:04.235Z,100810.56
2023-01-11T07:59:06.893Z,100808.00
2023-01-11T08:02:10.762Z,100806.34
2023-01-11T08:05:13.398Z,100802.97
2023-01-11T08:08:15.923Z,100804.72
2023-01-11T08:11:36.910Z,100804.72
2023-01-11T08:14:39.236Z,100819.25
2023-01-11T08:17:41.890Z,100820.09
2023-01-11T08:20:45.600Z,100821.81
2023-01-11T08:23:48.218Z,100832.94
2023-01-11T08:26:50.622Z,100822.66
2023-01-11T08:29:53.518Z,100817.50
2023-01-11T08:32:57.503Z,100818.38
2023-01-11T08:36:05.003Z,100821.84
2023-01-11T08:39:07.476Z,100833.81
2023-01-11T08:42:10.190Z,100839.78
2023-01-11T08:45:12.487Z,100845.81
2023-01-11T08:48:16.081Z,100846.69
2023-01-11T08:51:18.434Z,100833.00
2023-01-11T08:54:21.145Z,100830.44
2023-01-11T08:57:23.492Z,100833.00
2023-01-11T09:00:26.165Z,100841.63
2023-01-11T09:03:29.526Z,100846.75
2023-01-11T09:06:32.200Z,100843.31
2023-01-11T09:09:34.843Z,100845.03
2023-01-11T09:12:37.544Z,100856.19
2023-01-11T09:15:39.851Z,100844.13
2023-01-11T09:18:42.540Z,100845.78
2023-01-11T09:21:46.331Z,100844.84
2023-01-11T09:24:49.178Z,100840.50
2023-01-11T09:27:51.874Z,100843.09
2023-01-11T09:30:54.535Z,100833.66
2023-01-11T09:33:56.972Z,100829.34
2023-01-11T09:37:02.607Z,100822.44
2023-01-11T09:40:05.565Z,100820.63
2023-01-11T09:43:16.172Z,100829.09
2023-01-11T09:46:19.049Z,100823.00
2023-01-11T09:49:28.166Z,100821.16
2023-01-11T09:52:38.325Z,100827.94
2023-01-11T09:55:43.147Z,100817.50
2023-01-11T09:58:59.904Z,100824.16
2023-01-11T10:02:10.215Z,100821.38
2023-01-11T10:05:32.179Z,100808.31
2023-01-11T10:18:30.327Z,100790.56
2023-01-11T10:19:41.386Z,100786.97
2023-01-11T10:22:47.112Z,100788.41
2023-01-11T10:25:54.935Z,100778.00
2023-01-11T10:29:21.902Z,100779.78
2023-01-11T10:32:34.730Z,100790.84
2023-01-11T10:35:45.780Z,100794.09
2023-01-11T10:38:55.016Z,100800.75
2023-01-11T10:42:28.153Z,100794.41
2023-01-11T10:45:37.396Z,100791.88
2023-01-11T10:48:42.294Z,100788.19
2023-01-11T10:51:46.862Z,100780.41
2023-01-11T10:54:54.699Z,100781.84
2023-01-11T10:58:10.319Z,100791.44
2023-01-11T11:01:40.719Z,100798.56
2023-01-11T11:04:46.451Z,100786.22
2023-01-11T11:07:51.874Z,100788.94
2023-01-11T11:10:54.919Z,100779.63
2023-01-11T11:14:00.334Z,100789.22
2023-01-11T11:17:10.035Z,100776.28
2023-01-11T11:20:23.781Z,100765.81
2023-01-11T11:23:28.797Z,100751.25
2023-01-11T11:26:38.248Z,100749.53
2023-01-11T11:29:42.582Z,100747.81
2023-01-11T11:32:52.449Z,100745.19
2023-01-11T11:36:00.157Z,100740.47
2023-01-11T11:39:18.811Z,100741.94
2023-01-11T11:42:22.238Z,100734.91
2023-01-11T11:45:26.425Z,100729.75
2023-01-11T11:48:34.004Z,100738.22
2023-01-11T11:51:36.580Z,100733.72
2023-01-11T11:54:41.857Z,100739.72
2023-01-11T11:57:44.399Z,100738.16
2023-01-11T12:00:49.026Z,100743.22
2023-01-11T12:03:54.705Z,100737.94
2023-01-11T12:07:06.204Z,100739.81
2023-01-11T12:10:14.910Z,100737.34
2023-01-11T12:13:27.929Z,100742.44
2023-01-11T12:16:33.978Z,100747.50
2023-01-11T12:19:45.841Z,100742.22
2023-01-11T12:22:49.252Z,100741.25
2023-01-11T12:25:51.647Z,100744.53
2023-01-11T12:29:03.097Z,100742.06
2023-01-11T12:32:26.529Z,100743.00
2023-01-11T12:35:32.181Z,100757.56
2023-01-11T12:38:51.151Z,100756.72
2023-01-11T12:41:56.874Z,100754.97
2023-01-11T12:45:08.427Z,100752.34
2023-01-11T12:48:23.458Z,100748.22
2023-01-11T12:51:41.526Z,100746.44
2023-01-11T12:55:07.016Z,100753.28
2023-01-11T12:58:15.688Z,100753.47
2023-01-11T13:01:37.757Z,100753.28
2023-01-11T13:05:00.068Z,100747.22
2023-01-11T13:08:11.691Z,100745.50
2023-01-11T13:11:40.351Z,100734.22
2023-01-11T13:14:43.141Z,100734.97
2023-01-11T13:17:53.979Z,100739.28
2023-01-11T13:21:02.488Z,100741.16
2023-01-11T13:24:09.675Z,100737.50
2023-01-11T13:27:16.606Z,100739.41
2023-01-11T13:30:20.187Z,100740.41
2023-01-11T13:33:24.248Z,100741.31
2023-01-11T13:36:31.348Z,100748.22
2023-01-11T13:39:34.019Z,100751.78
2023-01-11T13:42:45.402Z,100762.34
2023-01-11T13:45:53.265Z,100754.56
2023-01-11T13:48:58.155Z,100760.75
2023-01-11T13:52:07.843Z,100760.94
2023-01-11T13:55:20.825Z,100763.75
2023-01-11T13:58:31.347Z,100756.03
2023-01-11T14:01:46.664Z,100756.22
2023-01-11T14:04:49.297Z,100761.59
2023-01-11T14:08:01.064Z,100761.72
2023-01-11T14:11:22.869Z,100763.50
2023-01-11T14:14:34.490Z,100760.13
2023-01-11T14:17:49.215Z,100760.25
2023-01-11T14:20:57.629Z,100760.41
2023-01-11T14:24:01.426Z,100758.00
2023-01-11T14:27:11.495Z,100754.47
2023-01-11T14:30:26.331Z,100741.69
2023-01-11T14:33:29.057Z,100749.59
2023-01-11T14:36:56.840Z,100744.59
2023-01-11T14:40:21.510Z,100745.66
2023-01-11T14:43:39.622Z,100754.34
2023-01-11T14:46:50.885Z,100759.63
2023-01-11T14:50:12.217Z,100753.62
2023-01-11T14:53:18.344Z,100751.19
2023-01-11T14:56:40.171Z,100746.16
2023-01-11T14:59:43.162Z,100744.50
2023-01-11T15:02:47.314Z,100752.37
2023-01-11T15:05:52.675Z,100751.63
2023-01-11T15:08:55.562Z,100742.25
2023-01-11T15:12:10.713Z,100748.41
2023-01-11T15:15:17.007Z,100746.84
2023-01-11T15:18:24.552Z,100744.31
2023-01-11T15:21:27.644Z,100736.50
2023-01-11T15:24:31.725Z,100740.00
2023-01-11T15:27:36.311Z,100734.00
2023-01-11T15:30:39.311Z,100752.22
2023-01-11T15:33:46.383Z,100753.97
2023-01-11T15:36:54.864Z,100754.91
2023-01-11T15:39:58.994Z,100754.19
2023-01-11T15:43:16.694Z,100756.75
2023-01-11T15:46:50.227Z,100755.06
2023-01-11T15:50:15.584Z,100752.47
2023-01-11T15:53:30.473Z,100746.50
2023-01-11T15:57:08.235Z,100743.16
2023-01-11T16:00:30.209Z,100748.28
2023-01-11T16:03:44.971Z,100746.81
2023-01-11T16:06:52.972Z,100744.28
2023-01-11T16:10:01.794Z,100756.31
2023-01-11T16:13:15.971Z,100746.94
2023-01-11T16:16:18.984Z,100752.16
2023-01-11T16:19:23.433Z,100749.56
2023-01-11T16:22:27.525Z,100745.31
2023-01-11T16:25:31.462Z,100741.13
2023-01-11T16:28:34.138Z,100744.53
2023-01-11T16:32:06.116Z,100739.34
2023-01-11T16:35:23.570Z,100751.44
2023-01-11T16:38:27.639Z,100751.50
2023-01-11T16:41:51.178Z,100756.69
2023-01-11T16:45:00.753Z,100747.25
2023-01-11T16:48:05.096Z,100750.66
2023-01-11T16:51:07.460Z,100755.84
2023-01-11T16:54:14.669Z,100752.41
2023-01-11T16:57:17.108Z,100754.97
2023-01-11T17:00:23.446Z,100750.72
2023-01-11T17:03:27.347Z,100749.81
2023-01-11T17:06:34.446Z,100757.56
2023-01-11T17:09:36.842Z,100760.97
2023-01-11T17:12:42.895Z,100759.28
2023-01-11T17:15:53.785Z,100759.28
2023-01-11T17:19:07.384Z,100760.13
2023-01-11T17:22:25.077Z,100760.97
2023-01-11T17:25:37.323Z,100756.69
2023-01-11T17:28:48.827Z,100760.97
2023-01-11T17:31:51.580Z,100754.09
2023-01-11T17:34:54.300Z,100756.66
2023-01-11T17:37:58.960Z,100757.50
2023-01-11T17:41:22.845Z,100754.09
2023-01-11T17:44:44.426Z,100760.91
2023-01-11T17:47:48.306Z,100770.31
2023-01-11T17:50:56.873Z,100773.72
2023-01-11T17:53:59.406Z,100769.44
2023-01-11T17:57:02.178Z,100772.81
2023-01-11T18:00:23.337Z,100775.38
2023-01-11T18:03:25.968Z,100770.28
2023-01-11T18:06:41.822Z,100769.41
2023-01-11T18:09:48.619Z,100767.66
2023-01-11T18:12:52.228Z,100776.25
2023-01-11T18:15:55.003Z,100776.22
2023-01-11T18:18:57.522Z,100774.47
2023-01-11T18:22:00.612Z,100779.59
2023-01-11T18:25:20.440Z,100780.44
2023-01-11T18:28:30.216Z,100784.69
2023-01-11T18:31:32.777Z,100787.25
2023-01-11T18:34:36.005Z,100793.22
2023-01-11T18:37:38.326Z,100792.34
2023-01-11T18:40:41.129Z,100798.31
2023-01-11T18:43:43.527Z,100795.69
2023-01-11T18:46:46.198Z,100798.28
2023-01-11T18:49:49.533Z,100795.72
2023-01-11T18:52:52.284Z,100798.22
2023-01-11T18:55:54.725Z,100802.47
2023-01-11T18:58:58.150Z,100805.88
2023-01-11T19:02:15.992Z,100807.47
2023-01-11T19:05:19.867Z,100807.41
2023-01-11T19:08:22.442Z,100806.53
2023-01-11T19:11:27.046Z,100816.72
2023-01-11T19:14:29.903Z,100808.94
2023-01-11T19:17:32.638Z,100821.84
2023-01-11T19:20:36.081Z,100825.22
2023-01-11T19:23:38.824Z,100819.19
2023-01-11T19:26:41.317Z,100814.88
2023-01-11T19:29:44.216Z,100819.13
2023-01-11T19:32:51.063Z,100828.59
2023-01-11T19:35:53.939Z,100839.63
2023-01-11T19:38:56.423Z,100846.41
2023-01-11T19:42:01.434Z,100836.97
2023-01-11T19:45:04.370Z,100843.78
2023-01-11T19:48:07.206Z,100847.25
2023-01-11T19:51:10.692Z,100850.63
2023-01-11T19:54:14.779Z,100843.69
2023-01-11T19:57:20.257Z,100847.09
2023-01-11T20:00:22.911Z,100843.59
2023-01-11T20:03:26.045Z,100851.19
2023-01-11T20:06:28.481Z,100853.03
2023-01-11T20:09:31.925Z,100858.28
2023-01-11T20:12:34.358Z,100858.38
2023-01-11T20:15:37.798Z,100857.50
2023-01-11T20:18:42.430Z,100847.03
2023-01-11T20:21:45.202Z,100835.00
2023-01-11T20:24:47.613Z,100830.69
2023-01-11T20:27:50.392Z,100845.94
2023-01-11T20:30:53.507Z,100846.66
2023-01-11T20:33:56.902Z,100855.09
2023-01-11T20:36:59.368Z,100847.63
2023-01-11T20:40:02.254Z,100852.62
2023-01-11T20:43:05.068Z,100861.91
2023-01-11T20:46:08.024Z,100859.31
2023-01-11T20:49:10.996Z,100863.53
2023-01-11T20:52:14.209Z,100856.69
2023-01-11T20:55:16.668Z,100853.25
2023-01-11T20:58:19.346Z,100862.50
2023-01-11T21:01:31.032Z,100863.19
2023-01-11T21:04:33.712Z,100866.81
2023-01-11T21:07:36.477Z,100867.50
2023-01-11T21:10:39.120Z,100883.63
2023-01-11T21:13:41.617Z,100881.88
2023-01-11T21:16:44.371Z,100898.91
2023-01-11T21:19:46.751Z,100897.03
2023-01-11T21:22:49.367Z,100882.50
2023-01-11T21:25:54.105Z,100877.31
2023-01-11T21:29:01.267Z,100884.09
2023-01-11T21:32:04.417Z,100890.91
2023-01-11T21:35:07.269Z,100882.50
2023-01-11T21:38:10.048Z,100895.19
2023-01-11T21:41:14.702Z,100902.91
2023-01-11T21:44:17.838Z,100899.47
2023-01-11T21:47:22.192Z,100901.16
2023-01-11T21:50:25.039Z,100900.16
2023-01-11T21:53:32.038Z,100904.25
2023-01-11T21:56:34.732Z,100902.63
2023-01-11T21:59:37.303Z,100904.25
2023-01-11T22:02:39.624Z,100912.78
2023-01-11T22:05:42.336Z,100906.75
2023-01-11T22:08:45.142Z,100904.25
2023-01-11T22:11:47.956Z,100907.59
2023-01-11T22:14:52.405Z,100907.53
2023-01-11T22:17:55.301Z,100911.78
2023-01-11T22:21:04.756Z,100913.59
2023-01-11T22:24:10.432Z,100905.84
2023-01-11T22:27:12.874Z,100906.66
2023-01-11T22:30:18.573Z,100910.25
2023-01-11T22:33:20.984Z,100907.53
2023-01-11T22:36:24.977Z,100905.84
2023-01-11T22:39:29.401Z,100906.75
2023-01-11T22:42:33.394Z,100912.78
2023-01-11T22:45:35.821Z,100911.09
2023-01-11T22:48:38.686Z,100915.34
2023-01-11T22:51:41.923Z,100917.84
2023-01-11T22:54:44.593Z,100921.28
2023-01-11T22:57:46.972Z,100924.59
2023-01-11T23:00:49.852Z,100928.94
2023-01-11T23:03:52.874Z,100928.06
2023-01-11T23:06:55.492Z,100921.13
2023-01-11T23:09:58.210Z,100920.16
2023-01-11T23:13:19.772Z,100916.72
2023-01-11T23:16:22.900Z,100908.16
2023-01-11T23:19:25.634Z,100911.56
2023-01-11T23:22:27.969Z,100921.72
2023-01-11T23:25:30.569Z,100920.81
2023-01-11T23:28:34.008Z,100919.94
2023-01-11T23:31:37.792Z,100914.31
2023-01-11T23:34:40.205Z,100907.47
2023-01-11T23:37:42.875Z,100906.53
2023-01-11T23:41:06.686Z,100908.06
2023-01-11T23:44:10.791Z,100903.75
2023-01-11T23:47:22.236Z,100913.97
2023-01-11T23:50:25.089Z,100916.75
2023-01-11T23:53:27.613Z,100915.13
2023-01-11T23:56:30.948Z,100921.13
2023-01-11T23:59:33.550Z,100913.59
